createdAt,value
2022-10-13T00:00:24.602Z,1003.39
2022-10-13T00:01:24.665Z,1003.40
2022-10-13T00:02:24.592Z,1003.48
2022-10-13T00:03:24.607Z,1003.52
2022-10-13T00:04:24.576Z,1003.53
2022-10-13T00:05:24.555Z,1003.49
2022-10-13T00:06:25.136Z,1003.56
2022-10-13T00:07:24.553Z,1003.58
2022-10-13T00:08:24.562Z,1003.53
2022-10-13T00:09:24.533Z,1003.46
2022-10-13T00:10:24.518Z,1003.52
2022-10-13T00:11:24.512Z,1003.54
2022-10-13T00:12:24.502Z,1003.49
2022-10-13T00:13:24.517Z,1003.50
2022-10-13T00:14:24.500Z,1003.44
2022-10-13T00:15:24.479Z,1003.47
2022-10-13T00:16:24.467Z,1003.39
2022-10-13T00:17:24.462Z,1003.37
2022-10-13T00:18:24.486Z,1003.43
2022-10-13T00:19:24.443Z,1003.43
2022-10-13T00:20:24.432Z,1003.40
2022-10-13T00:21:24.441Z,1003.44
2022-10-13T00:22:24.416Z,1003.43
2022-10-13T00:23:24.451Z,1003.44
2022-10-13T00:24:24.400Z,1003.42
2022-10-13T00:25:24.391Z,1003.41
2022-10-13T00:26:24.382Z,1003.38
2022-10-13T00:27:24.373Z,1003.40
2022-10-13T00:28:24.403Z,1003.36
2022-10-13T00:29:24.435Z,1003.43
2022-10-13T00:30:24.809Z,1003.40
2022-10-13T00:31:24.593Z,1003.43
2022-10-13T00:32:24.350Z,1003.43
2022-10-13T00:33:24.330Z,1003.40
2022-10-13T00:34:24.347Z,1003.44
2022-10-13T00:35:24.313Z,1003.44
2022-10-13T00:36:24.306Z,1003.43
2022-10-13T00:37:24.293Z,1003.41
2022-10-13T00:38:24.324Z,1003.34
2022-10-13T00:39:24.283Z,1003.36
2022-10-13T00:40:24.258Z,1003.34
2022-10-13T00:41:25.263Z,1003.32
2022-10-13T00:42:24.256Z,1003.31
2022-10-13T00:43:24.272Z,1003.33
2022-10-13T00:44:24.248Z,1003.30
2022-10-13T00:45:24.226Z,1003.29
2022-10-13T00:46:24.219Z,1003.25
2022-10-13T00:47:24.221Z,1003.24
2022-10-13T00:48:25.230Z,1003.28
2022-10-13T00:49:24.192Z,1003.26
2022-10-13T00:50:24.325Z,1003.33
2022-10-13T00:51:24.174Z,1003.27
2022-10-13T00:52:24.215Z,1003.30
2022-10-13T00:53:24.207Z,1003.36
2022-10-13T00:54:24.330Z,1003.40
2022-10-13T00:55:24.188Z,1003.34
2022-10-13T00:56:24.635Z,1003.38
2022-10-13T00:57:24.125Z,1003.40
2022-10-13T00:58:24.155Z,1003.38
2022-10-13T00:59:24.108Z,1003.34
2022-10-13T01:00:24.106Z,1003.37
2022-10-13T01:01:24.278Z,1003.37
2022-10-13T01:02:24.088Z,1003.33
2022-10-13T01:03:24.104Z,1003.35
2022-10-13T01:04:24.067Z,1003.28
2022-10-13T01:05:24.056Z,1003.33
2022-10-13T01:06:24.109Z,1003.24
2022-10-13T01:07:24.043Z,1003.21
2022-10-13T01:08:24.060Z,1003.25
2022-10-13T01:09:24.373Z,1003.27
2022-10-13T01:10:24.019Z,1003.25
2022-10-13T01:11:24.359Z,1003.26
2022-10-13T01:12:24.373Z,1003.20
2022-10-13T01:13:24.029Z,1003.24
2022-10-13T01:14:23.983Z,1003.25
2022-10-13T01:15:24.057Z,1003.26
2022-10-13T01:16:23.967Z,1003.31
2022-10-13T01:17:23.967Z,1003.25
2022-10-13T01:18:23.979Z,1003.29
2022-10-13T01:19:23.944Z,1003.25
2022-10-13T01:20:23.930Z,1003.28
2022-10-13T01:21:23.922Z,1003.26
2022-10-13T01:22:23.919Z,1003.17
2022-10-13T01:23:23.969Z,1003.19
2022-10-13T01:24:23.905Z,1003.20
2022-10-13T01:25:23.886Z,1003.21
2022-10-13T01:26:24.043Z,1003.17
2022-10-13T01:27:23.873Z,1003.18
2022-10-13T01:28:23.926Z,1003.15
2022-10-13T01:29:23.860Z,1003.16
2022-10-13T01:30:23.855Z,1003.17
2022-10-13T01:31:23.844Z,1003.18
2022-10-13T01:32:23.833Z,1003.21
2022-10-13T01:33:23.819Z,1003.14
2022-10-13T01:34:23.849Z,1003.12
2022-10-13T01:35:23.893Z,1003.05
2022-10-13T01:36:23.806Z,1003.05
2022-10-13T01:37:23.792Z,1003.03
2022-10-13T01:38:23.776Z,1002.95
2022-10-13T01:39:23.800Z,1003.03
2022-10-13T01:40:23.765Z,1002.96
2022-10-13T01:41:23.762Z,1002.91
2022-10-13T01:42:23.744Z,1002.99
2022-10-13T01:43:23.739Z,1002.95
2022-10-13T01:44:23.754Z,1002.98
2022-10-13T01:45:23.778Z,1002.91
2022-10-13T01:46:24.763Z,1002.96
2022-10-13T01:47:23.703Z,1002.95
2022-10-13T01:48:23.699Z,1002.92
2022-10-13T01:49:23.722Z,1002.99
2022-10-13T01:50:23.688Z,1003.02
2022-10-13T01:51:23.745Z,1002.97
2022-10-13T01:52:23.664Z,1002.89
2022-10-13T01:53:23.657Z,1002.94
2022-10-13T01:54:23.835Z,1002.86
2022-10-13T01:55:23.634Z,1002.97
2022-10-13T01:56:23.632Z,1002.84
2022-10-13T01:57:23.618Z,1002.95
2022-10-13T01:58:24.613Z,1002.89
2022-10-13T01:59:23.639Z,1002.90
2022-10-13T02:00:23.618Z,1002.88
2022-10-13T02:01:23.842Z,1002.83
2022-10-13T02:02:23.729Z,1002.87
2022-10-13T02:03:23.585Z,1002.90
2022-10-13T02:04:23.592Z,1002.87
2022-10-13T02:05:23.561Z,1002.88
2022-10-13T02:06:23.548Z,1002.88
2022-10-13T02:07:23.548Z,1002.87
2022-10-13T02:08:24.531Z,1002.85
2022-10-13T02:09:23.552Z,1002.92
2022-10-13T02:10:23.568Z,1002.87
2022-10-13T02:11:23.660Z,1002.89
2022-10-13T02:12:23.500Z,1002.94
2022-10-13T02:13:23.489Z,1002.88
2022-10-13T02:14:23.511Z,1002.87
2022-10-13T02:15:23.468Z,1002.82
2022-10-13T02:16:23.461Z,1002.91
2022-10-13T02:17:23.452Z,1002.81
2022-10-13T02:18:23.445Z,1002.86
2022-10-13T02:19:23.481Z,1002.82
2022-10-13T02:20:23.422Z,1002.83
2022-10-13T02:21:23.419Z,1002.75
2022-10-13T02:22:23.411Z,1002.77
2022-10-13T02:23:23.419Z,1002.76
2022-10-13T02:24:23.441Z,1002.73
2022-10-13T02:25:23.388Z,1002.77
2022-10-13T02:26:23.411Z,1002.81
2022-10-13T02:27:23.370Z,1002.79
2022-10-13T02:28:23.409Z,1002.79
2022-10-13T02:29:23.338Z,1002.70
2022-10-13T02:30:23.361Z,1002.75
2022-10-13T02:31:23.621Z,1002.75
2022-10-13T02:32:23.323Z,1002.67
2022-10-13T02:33:23.318Z,1002.66
2022-10-13T02:34:23.347Z,1002.67
2022-10-13T02:35:23.298Z,1002.71
2022-10-13T02:36:23.380Z,1002.65
2022-10-13T02:37:23.279Z,1002.71
2022-10-13T02:38:23.267Z,1002.66
2022-10-13T02:39:23.277Z,1002.76
2022-10-13T02:40:23.303Z,1002.66
2022-10-13T02:41:23.246Z,1002.65
2022-10-13T02:42:23.576Z,1002.66
2022-10-13T02:43:23.226Z,1002.68
2022-10-13T02:44:23.266Z,1002.67
2022-10-13T02:45:23.218Z,1002.65
2022-10-13T02:46:23.204Z,1002.61
2022-10-13T02:47:23.198Z,1002.63
2022-10-13T02:48:23.183Z,1002.61
2022-10-13T02:49:24.360Z,1002.64
2022-10-13T02:50:23.206Z,1002.56
2022-10-13T02:51:23.183Z,1002.61
2022-10-13T02:52:23.218Z,1002.61
2022-10-13T02:53:23.162Z,1002.62
2022-10-13T02:54:23.168Z,1002.62
2022-10-13T02:55:23.251Z,1002.61
2022-10-13T02:56:23.131Z,1002.55
2022-10-13T02:57:23.117Z,1002.57
2022-10-13T02:58:23.112Z,1002.57
2022-10-13T02:59:23.156Z,1002.56
2022-10-13T03:00:23.098Z,1002.58
2022-10-13T03:01:23.083Z,1002.58
2022-10-13T03:02:23.487Z,1002.57
2022-10-13T03:03:23.070Z,1002.64
2022-10-13T03:04:23.095Z,1002.59
2022-10-13T03:05:23.087Z,1002.60
2022-10-13T03:06:23.044Z,1002.56
2022-10-13T03:07:23.028Z,1002.52
2022-10-13T03:08:23.029Z,1002.50
2022-10-13T03:09:23.048Z,1002.62
2022-10-13T03:10:23.010Z,1002.49
2022-10-13T03:11:23.004Z,1002.52
2022-10-13T03:12:23.199Z,1002.52
2022-10-13T03:13:22.990Z,1002.48
2022-10-13T03:14:23.007Z,1002.50
2022-10-13T03:15:22.973Z,1002.48
2022-10-13T03:16:22.963Z,1002.51
2022-10-13T03:17:22.947Z,1002.54
2022-10-13T03:18:22.943Z,1002.43
2022-10-13T03:19:22.972Z,1002.46
2022-10-13T03:20:22.932Z,1002.47
2022-10-13T03:21:22.920Z,1002.45
2022-10-13T03:22:23.320Z,1002.44
2022-10-13T03:23:22.917Z,1002.45
2022-10-13T03:24:22.928Z,1002.43
2022-10-13T03:25:22.888Z,1002.45
2022-10-13T03:26:22.878Z,1002.54
2022-10-13T03:27:22.976Z,1002.46
2022-10-13T03:28:22.910Z,1002.42
2022-10-13T03:29:22.889Z,1002.43
2022-10-13T03:30:22.915Z,1002.44
2022-10-13T03:31:22.842Z,1002.46
2022-10-13T03:32:23.149Z,1002.50
2022-10-13T03:33:22.815Z,1002.46
2022-10-13T03:34:22.811Z,1002.43
2022-10-13T03:35:22.830Z,1002.48
2022-10-13T03:36:22.794Z,1002.48
2022-10-13T03:37:22.920Z,1002.47
2022-10-13T03:38:22.783Z,1002.44
2022-10-13T03:39:22.772Z,1002.44
2022-10-13T03:40:22.791Z,1002.44
2022-10-13T03:41:22.756Z,1002.49
2022-10-13T03:42:22.903Z,1002.43
2022-10-13T03:43:22.751Z,1002.44
2022-10-13T03:44:22.727Z,1002.44
2022-10-13T03:45:22.744Z,1002.40
2022-10-13T03:46:22.698Z,1002.42
2022-10-13T03:47:23.697Z,1002.45
2022-10-13T03:48:22.692Z,1002.45
2022-10-13T03:49:22.697Z,1002.48
2022-10-13T03:50:22.707Z,1002.46
2022-10-13T03:51:22.658Z,1002.43
2022-10-13T03:52:22.848Z,1002.47
2022-10-13T03:53:22.660Z,1002.45
2022-10-13T03:54:22.640Z,1002.42
2022-10-13T03:55:22.666Z,1002.44
2022-10-13T03:56:22.743Z,1002.38
2022-10-13T03:57:22.624Z,1002.35
2022-10-13T03:58:22.607Z,1002.42
2022-10-13T03:59:22.755Z,1002.41
2022-10-13T04:00:22.698Z,1002.41
2022-10-13T04:01:22.630Z,1002.48
2022-10-13T04:02:22.678Z,1002.46
2022-10-13T04:03:22.562Z,1002.45
2022-10-13T04:04:22.554Z,1002.43
2022-10-13T04:05:22.573Z,1002.42
2022-10-13T04:06:22.542Z,1002.42
2022-10-13T04:07:22.541Z,1002.46
2022-10-13T04:08:22.524Z,1002.48
2022-10-13T04:09:22.520Z,1002.44
2022-10-13T04:10:22.541Z,1002.44
2022-10-13T04:11:22.499Z,1002.45
2022-10-13T04:12:22.829Z,1002.48
2022-10-13T04:13:22.482Z,1002.47
2022-10-13T04:14:22.472Z,1002.43
2022-10-13T04:15:22.490Z,1002.47
2022-10-13T04:16:22.460Z,1002.48
2022-10-13T04:17:22.450Z,1002.44
2022-10-13T04:18:22.437Z,1002.55
2022-10-13T04:19:22.442Z,1002.43
2022-10-13T04:20:22.453Z,1002.47
2022-10-13T04:21:22.416Z,1002.45
2022-10-13T04:22:22.791Z,1002.50
2022-10-13T04:23:22.395Z,1002.54
2022-10-13T04:24:22.389Z,1002.51
2022-10-13T04:25:22.405Z,1002.48
2022-10-13T04:26:22.375Z,1002.50
2022-10-13T04:27:22.360Z,1002.49
2022-10-13T04:28:22.390Z,1002.58
2022-10-13T04:29:22.347Z,1002.55
2022-10-13T04:30:22.368Z,1002.55
2022-10-13T04:31:22.335Z,1002.54
2022-10-13T04:32:22.517Z,1002.56
2022-10-13T04:33:22.321Z,1002.56
2022-10-13T04:34:22.357Z,1002.48
2022-10-13T04:35:22.327Z,1002.53
2022-10-13T04:36:22.301Z,1002.49
2022-10-13T04:37:22.339Z,1002.50
2022-10-13T04:38:22.274Z,1002.57
2022-10-13T04:39:22.267Z,1002.62
2022-10-13T04:40:22.286Z,1002.65
2022-10-13T04:41:22.434Z,1002.74
2022-10-13T04:42:22.726Z,1002.64
2022-10-13T04:43:22.231Z,1002.62
2022-10-13T04:44:22.220Z,1002.60
2022-10-13T04:45:22.240Z,1002.66
2022-10-13T04:46:22.207Z,1002.60
2022-10-13T04:47:22.190Z,1002.58
2022-10-13T04:48:22.179Z,1002.54
2022-10-13T04:49:22.276Z,1002.55
2022-10-13T04:50:22.199Z,1002.54
2022-10-13T04:51:22.167Z,1002.52
2022-10-13T04:52:22.483Z,1002.53
2022-10-13T04:53:22.149Z,1002.59
2022-10-13T04:54:22.147Z,1002.49
2022-10-13T04:55:22.158Z,1002.45
2022-10-13T04:56:22.119Z,1002.49
2022-10-13T04:57:22.117Z,1002.53
2022-10-13T04:58:22.108Z,1002.43
2022-10-13T04:59:22.097Z,1002.54
2022-10-13T05:00:22.236Z,1002.43
2022-10-13T05:01:22.583Z,1002.43
2022-10-13T05:02:23.081Z,1002.38
2022-10-13T05:03:22.066Z,1002.41
2022-10-13T05:04:22.066Z,1002.45
2022-10-13T05:05:22.076Z,1002.50
2022-10-13T05:06:22.039Z,1002.44
2022-10-13T05:07:22.035Z,1002.47
2022-10-13T05:08:22.046Z,1002.45
2022-10-13T05:09:22.047Z,1002.36
2022-10-13T05:10:22.034Z,1002.47
2022-10-13T05:11:22.006Z,1002.40
2022-10-13T05:12:22.245Z,1002.37
2022-10-13T05:13:21.981Z,1002.41
2022-10-13T05:14:21.966Z,1002.39
2022-10-13T05:15:22.010Z,1002.38
2022-10-13T05:16:22.021Z,1002.39
2022-10-13T05:17:21.959Z,1002.39
2022-10-13T05:18:21.941Z,1002.35
2022-10-13T05:19:21.926Z,1002.33
2022-10-13T05:20:22.957Z,1002.32
2022-10-13T05:21:21.917Z,1002.31
2022-10-13T05:22:22.210Z,1002.36
2022-10-13T05:23:21.899Z,1002.35
2022-10-13T05:24:21.891Z,1002.28
2022-10-13T05:25:21.918Z,1002.36
2022-10-13T05:26:21.879Z,1002.29
2022-10-13T05:27:21.863Z,1002.27
2022-10-13T05:28:21.919Z,1002.41
2022-10-13T05:29:21.849Z,1002.32
2022-10-13T05:30:21.874Z,1002.33
2022-10-13T05:31:21.828Z,1002.29
2022-10-13T05:32:22.213Z,1002.23
2022-10-13T05:33:21.820Z,1002.26
2022-10-13T05:34:21.803Z,1002.27
2022-10-13T05:35:21.797Z,1002.27
2022-10-13T05:36:21.819Z,1002.36
2022-10-13T05:37:21.782Z,1002.34
2022-10-13T05:38:25.932Z,1002.29
2022-10-13T05:39:22.765Z,1002.32
2022-10-13T05:40:21.746Z,1002.37
2022-10-13T05:41:22.785Z,1002.22
2022-10-13T05:42:22.131Z,1002.22
2022-10-13T05:43:21.734Z,1002.27
2022-10-13T05:44:21.736Z,1002.21
2022-10-13T05:45:21.747Z,1002.28
2022-10-13T05:46:21.741Z,1002.24
2022-10-13T05:47:21.697Z,1002.17
2022-10-13T05:48:21.697Z,1002.28
2022-10-13T05:49:21.683Z,1002.24
2022-10-13T05:50:21.676Z,1002.21
2022-10-13T05:51:21.712Z,1002.18
2022-10-13T05:52:22.073Z,1002.18
2022-10-13T05:53:21.690Z,1002.18
2022-10-13T05:54:21.650Z,1002.21
2022-10-13T05:55:21.643Z,1002.20
2022-10-13T05:56:21.672Z,1002.18
2022-10-13T05:57:21.620Z,1002.22
2022-10-13T05:58:21.615Z,1002.18
2022-10-13T05:59:26.772Z,1002.24
2022-10-13T06:00:23.594Z,1002.26
2022-10-13T06:01:21.614Z,1002.27
2022-10-13T06:02:22.007Z,1002.25
2022-10-13T06:03:21.567Z,1002.29
2022-10-13T06:04:21.563Z,1002.25
2022-10-13T06:05:21.552Z,1002.23
2022-10-13T06:06:21.572Z,1002.22
2022-10-13T06:07:21.545Z,1002.28
2022-10-13T06:08:21.535Z,1002.26
2022-10-13T06:09:21.520Z,1002.17
2022-10-13T06:10:21.522Z,1002.27
2022-10-13T06:11:21.528Z,1002.24
2022-10-13T06:12:21.810Z,1002.20
2022-10-13T06:13:21.501Z,1002.17
2022-10-13T06:14:21.478Z,1002.19
2022-10-13T06:15:25.696Z,1002.13
2022-10-13T06:16:23.485Z,1002.22
2022-10-13T06:17:21.452Z,1002.18
2022-10-13T06:18:21.451Z,1002.16
2022-10-13T06:19:21.443Z,1002.20
2022-10-13T06:20:21.434Z,1002.18
2022-10-13T06:21:21.452Z,1002.18
2022-10-13T06:22:21.906Z,1002.17
2022-10-13T06:23:21.409Z,1002.15
2022-10-13T06:24:21.396Z,1002.12
2022-10-13T06:25:21.384Z,1002.17
2022-10-13T06:26:21.505Z,1002.10
2022-10-13T06:27:21.373Z,1002.13
2022-10-13T06:28:21.409Z,1002.11
2022-10-13T06:29:21.353Z,1002.05
2022-10-13T06:30:21.357Z,1002.01
2022-10-13T06:31:21.361Z,1002.02
2022-10-13T06:32:21.726Z,1002.00
2022-10-13T06:33:21.321Z,1001.99
2022-10-13T06:34:21.313Z,1001.96
2022-10-13T06:35:21.304Z,1001.88
2022-10-13T06:36:21.329Z,1001.87
2022-10-13T06:37:26.958Z,1001.83
2022-10-13T06:38:23.277Z,1001.83
2022-10-13T06:39:21.279Z,1001.88
2022-10-13T06:40:21.255Z,1001.86
2022-10-13T06:41:21.348Z,1001.89
2022-10-13T06:42:21.575Z,1001.95
2022-10-13T06:43:21.246Z,1001.90
2022-10-13T06:44:21.232Z,1001.89
2022-10-13T06:45:21.221Z,1001.89
2022-10-13T06:46:21.256Z,1001.84
2022-10-13T06:47:21.214Z,1001.87
2022-10-13T06:48:21.201Z,1001.81
2022-10-13T06:49:21.199Z,1001.79
2022-10-13T06:50:21.180Z,1001.83
2022-10-13T06:51:21.169Z,1001.79
2022-10-13T06:52:21.566Z,1001.78
2022-10-13T06:53:21.155Z,1001.79
2022-10-13T06:54:21.147Z,1001.80
2022-10-13T06:55:21.142Z,1001.84
2022-10-13T06:56:21.178Z,1001.83
2022-10-13T06:57:21.153Z,1001.90
2022-10-13T06:58:21.135Z,1001.91
2022-10-13T06:59:21.126Z,1001.91
2022-10-13T07:00:21.152Z,1001.94
2022-10-13T07:01:21.089Z,1001.95
2022-10-13T07:02:21.450Z,1001.95
2022-10-13T07:03:21.079Z,1001.93
2022-10-13T07:04:21.153Z,1001.96
2022-10-13T07:05:21.064Z,1001.92
2022-10-13T07:06:21.032Z,1001.94
2022-10-13T07:07:22.067Z,1001.98
2022-10-13T07:08:21.043Z,1001.98
2022-10-13T07:09:21.015Z,1001.99
2022-10-13T07:10:21.008Z,1002.02
2022-10-13T07:11:20.996Z,1002.01
2022-10-13T07:12:21.352Z,1001.96
2022-10-13T07:14:20.967Z,1001.96
2022-10-13T07:15:20.960Z,1002.03
2022-10-13T07:16:20.953Z,1002.05
2022-10-13T07:17:21.193Z,1002.03
2022-10-13T07:18:20.938Z,1002.02
2022-10-13T07:19:20.937Z,1001.95
2022-10-13T07:20:20.926Z,1001.98
2022-10-13T07:21:20.919Z,1002.04
2022-10-13T07:22:20.933Z,1002.05
2022-10-13T07:23:20.904Z,1002.06
2022-10-13T07:24:20.902Z,1002.07
2022-10-13T07:25:20.900Z,1002.00
2022-10-13T07:26:20.874Z,1002.09
2022-10-13T07:27:21.107Z,1002.10
2022-10-13T07:28:20.869Z,1002.04
2022-10-13T07:29:20.858Z,1002.02
2022-10-13T07:30:20.870Z,1002.01
2022-10-13T07:31:20.831Z,1001.95
2022-10-13T07:32:20.844Z,1001.88
2022-10-13T07:33:20.821Z,1001.89
2022-10-13T07:34:20.805Z,1001.88
2022-10-13T07:35:20.793Z,1001.90
2022-10-13T07:36:20.794Z,1001.96
2022-10-13T07:37:21.130Z,1001.95
2022-10-13T07:38:20.765Z,1001.90
2022-10-13T07:39:21.756Z,1001.87
2022-10-13T07:40:20.806Z,1001.89
2022-10-13T07:41:20.744Z,1001.92
2022-10-13T07:42:20.771Z,1001.87
2022-10-13T07:43:20.740Z,1001.95
2022-10-13T07:44:20.733Z,1001.91
2022-10-13T07:45:20.713Z,1001.94
2022-10-13T07:46:20.760Z,1001.85
2022-10-13T07:47:21.085Z,1001.87
2022-10-13T07:49:20.675Z,1001.88
2022-10-13T07:50:20.745Z,1001.90
2022-10-13T07:51:20.665Z,1001.88
2022-10-13T07:52:21.014Z,1001.73
2022-10-13T07:53:20.643Z,1001.74
2022-10-13T07:54:23.801Z,1001.73
2022-10-13T07:55:22.628Z,1001.76
2022-10-13T07:56:20.621Z,1001.76
2022-10-13T07:57:20.643Z,1001.86
2022-10-13T07:58:20.640Z,1001.87
2022-10-13T07:59:20.631Z,1001.85
2022-10-13T08:00:20.608Z,1001.78
2022-10-13T08:01:20.613Z,1001.78
2022-10-13T08:02:21.071Z,1001.79
2022-10-13T08:03:20.567Z,1001.83
2022-10-13T08:04:20.558Z,1001.81
2022-10-13T08:05:20.550Z,1001.74
2022-10-13T08:06:20.545Z,1001.68
2022-10-13T08:07:21.023Z,1001.73
2022-10-13T08:08:20.538Z,1001.70
2022-10-13T08:09:20.520Z,1001.66
2022-10-13T08:10:20.530Z,1001.76
2022-10-13T08:11:20.508Z,1001.70
2022-10-13T08:12:20.889Z,1001.66
2022-10-13T08:13:20.487Z,1001.73
2022-10-13T08:14:20.485Z,1001.75
2022-10-13T08:15:20.466Z,1001.72
2022-10-13T08:16:20.455Z,1001.71
2022-10-13T08:17:20.770Z,1001.70
2022-10-13T08:18:20.448Z,1001.66
2022-10-13T08:19:20.443Z,1001.67
2022-10-13T08:20:20.424Z,1001.63
2022-10-13T08:22:27.278Z,1001.63
2022-10-13T08:23:21.411Z,1001.70
2022-10-13T08:24:20.396Z,1001.64
2022-10-13T08:25:20.387Z,1001.61
2022-10-13T08:26:20.383Z,1001.59
2022-10-13T08:27:20.769Z,1001.60
2022-10-13T08:28:20.408Z,1001.64
2022-10-13T08:29:23.000Z,1001.68
2022-10-13T08:30:21.553Z,1001.54
2022-10-13T08:31:20.489Z,1001.68
2022-10-13T08:32:20.701Z,1001.60
2022-10-13T08:33:20.320Z,1001.71
2022-10-13T08:34:20.307Z,1001.68
2022-10-13T08:35:20.296Z,1001.66
2022-10-13T08:36:20.293Z,1001.63
2022-10-13T08:37:20.308Z,1001.63
2022-10-13T08:38:20.277Z,1001.69
2022-10-13T08:39:20.264Z,1001.72
2022-10-13T08:40:20.263Z,1001.72
2022-10-13T08:41:21.252Z,1001.78
2022-10-13T08:42:20.612Z,1001.67
2022-10-13T08:43:20.239Z,1001.66
2022-10-13T08:45:40.332Z,1001.60
2022-10-13T08:46:22.230Z,1001.59
2022-10-13T08:47:20.235Z,1001.66
2022-10-13T08:48:20.191Z,1001.60
2022-10-13T08:49:20.185Z,1001.54
2022-10-13T08:50:20.167Z,1001.63
2022-10-13T08:51:20.173Z,1001.55
2022-10-13T08:52:20.532Z,1001.66
2022-10-13T08:53:20.151Z,1001.60
2022-10-13T08:54:20.143Z,1001.55
2022-10-13T08:55:20.137Z,1001.61
2022-10-13T08:56:20.122Z,1001.62
2022-10-13T08:57:20.324Z,1001.61
2022-10-13T08:58:20.107Z,1001.64
2022-10-13T08:59:20.104Z,1001.66
2022-10-13T09:00:20.093Z,1001.68
2022-10-13T09:01:20.135Z,1001.64
2022-10-13T09:02:20.100Z,1001.67
2022-10-13T09:03:20.062Z,1001.64
2022-10-13T09:04:20.052Z,1001.67
2022-10-13T09:05:20.055Z,1001.59
2022-10-13T09:06:20.048Z,1001.62
2022-10-13T09:07:20.300Z,1001.56
2022-10-13T09:08:20.053Z,1001.53
2022-10-13T09:09:20.013Z,1001.54
2022-10-13T09:10:20.032Z,1001.52
2022-10-13T09:11:19.999Z,1001.59
2022-10-13T09:12:20.154Z,1001.55
2022-10-13T09:13:20.015Z,1001.57
2022-10-13T09:14:19.973Z,1001.58
2022-10-13T09:15:19.964Z,1001.57
2022-10-13T09:16:19.952Z,1001.56
2022-10-13T09:17:20.010Z,1001.53
2022-10-13T09:18:19.972Z,1001.60
2022-10-13T09:19:19.961Z,1001.52
2022-10-13T09:20:19.921Z,1001.57
2022-10-13T09:21:19.922Z,1001.53
2022-10-13T09:22:20.182Z,1001.46
2022-10-13T09:23:19.931Z,1001.42
2022-10-13T09:24:19.885Z,1001.50
2022-10-13T09:25:19.886Z,1001.50
2022-10-13T09:26:19.878Z,1001.45
2022-10-13T09:27:19.865Z,1001.38
2022-10-13T09:28:19.919Z,1001.40
2022-10-13T09:29:19.846Z,1001.36
2022-10-13T09:30:19.848Z,1001.30
2022-10-13T09:31:19.829Z,1001.29
2022-10-13T09:32:20.125Z,1001.27
2022-10-13T09:33:19.859Z,1001.40
2022-10-13T09:34:19.805Z,1001.42
2022-10-13T09:35:19.814Z,1001.44
2022-10-13T09:36:19.789Z,1001.47
2022-10-13T09:37:19.782Z,1001.45
2022-10-13T09:38:19.815Z,1001.49
2022-10-13T09:39:19.752Z,1001.50
2022-10-13T09:40:20.758Z,1001.44
2022-10-13T09:41:19.779Z,1001.46
2022-10-13T09:42:20.026Z,1001.51
2022-10-13T09:43:19.759Z,1001.42
2022-10-13T09:44:22.080Z,1001.48
2022-10-13T09:45:19.715Z,1001.51
2022-10-13T09:46:19.716Z,1001.48
2022-10-13T09:47:19.700Z,1001.48
2022-10-13T09:48:19.721Z,1001.48
2022-10-13T09:49:19.695Z,1001.44
2022-10-13T09:50:19.829Z,1001.37
2022-10-13T09:51:19.678Z,1001.42
2022-10-13T09:52:19.879Z,1001.42
2022-10-13T09:53:19.687Z,1001.36
2022-10-13T09:54:19.653Z,1001.34
2022-10-13T09:55:19.650Z,1001.41
2022-10-13T09:56:19.634Z,1001.40
2022-10-13T09:57:19.650Z,1001.43
2022-10-13T09:58:19.655Z,1001.33
2022-10-13T09:59:19.605Z,1001.37
2022-10-13T10:00:19.592Z,1001.39
2022-10-13T10:01:19.601Z,1001.41
2022-10-13T10:02:21.352Z,1001.44
2022-10-13T10:03:19.597Z,1001.39
2022-10-13T10:04:19.577Z,1001.33
2022-10-13T10:05:19.557Z,1001.43
2022-10-13T10:06:20.766Z,1001.41
2022-10-13T10:07:19.755Z,1001.42
2022-10-13T10:08:22.630Z,1001.41
2022-10-13T10:09:20.555Z,1001.43
2022-10-13T10:10:19.518Z,1001.43
2022-10-13T10:11:19.512Z,1001.37
2022-10-13T10:12:21.877Z,1001.39
2022-10-13T10:13:19.485Z,1001.34
2022-10-13T10:14:19.522Z,1001.35
2022-10-13T10:15:19.474Z,1001.38
2022-10-13T10:16:19.660Z,1001.27
2022-10-13T10:17:19.663Z,1001.37
2022-10-13T10:18:19.471Z,1001.37
2022-10-13T10:19:19.430Z,1001.36
2022-10-13T10:20:19.430Z,1001.33
2022-10-13T10:21:19.421Z,1001.38
2022-10-13T10:22:19.431Z,1001.30
2022-10-13T10:23:19.422Z,1001.30
2022-10-13T10:24:19.393Z,1001.23
2022-10-13T10:25:19.389Z,1001.26
2022-10-13T10:26:23.141Z,1001.27
2022-10-13T10:28:20.466Z,1001.28
2022-10-13T10:29:19.351Z,1001.28
2022-10-13T10:30:19.340Z,1001.23
2022-10-13T10:31:19.333Z,1001.21
2022-10-13T10:32:19.652Z,1001.20
2022-10-13T10:33:19.349Z,1001.18
2022-10-13T10:34:19.310Z,1001.25
2022-10-13T10:35:19.304Z,1001.19
2022-10-13T10:36:19.297Z,1001.13
2022-10-13T10:37:22.797Z,1001.20
2022-10-13T10:38:20.310Z,1001.20
2022-10-13T10:39:19.261Z,1001.14
2022-10-13T10:40:19.258Z,1001.16
2022-10-13T10:41:19.276Z,1001.16
2022-10-13T10:42:19.518Z,1001.16
2022-10-13T10:43:19.279Z,1001.16
2022-10-13T10:44:19.222Z,1001.16
2022-10-13T10:45:19.223Z,1001.10
2022-10-13T10:46:19.209Z,1001.13
2022-10-13T10:47:22.521Z,1001.08
2022-10-13T10:48:19.191Z,1001.10
2022-10-13T10:49:19.204Z,1001.08
2022-10-13T10:50:19.168Z,1001.06
2022-10-13T10:51:19.172Z,1001.00
2022-10-13T10:52:19.144Z,1001.05
2022-10-13T10:53:19.153Z,1001.03
2022-10-13T10:54:19.211Z,1000.96
2022-10-13T10:55:19.126Z,1001.01
2022-10-13T10:56:19.117Z,1000.97
2022-10-13T10:57:19.311Z,1000.90
2022-10-13T10:58:19.132Z,1000.83
2022-10-13T10:59:19.093Z,1000.81
2022-10-13T11:00:19.122Z,1000.72
2022-10-13T11:01:19.103Z,1000.85
2022-10-13T11:02:19.365Z,1000.83
2022-10-13T11:03:19.105Z,1000.79
2022-10-13T11:04:19.047Z,1000.85
2022-10-13T11:05:19.043Z,1000.83
2022-10-13T11:06:19.039Z,1000.80
2022-10-13T11:07:19.038Z,1000.75
2022-10-13T11:08:19.081Z,1000.73
2022-10-13T11:09:19.007Z,1000.74
2022-10-13T11:10:18.996Z,1000.78
2022-10-13T11:11:23.354Z,1000.75
2022-10-13T11:12:20.434Z,1000.69
2022-10-13T11:13:19.057Z,1000.74
2022-10-13T11:14:18.966Z,1000.69
2022-10-13T11:15:18.955Z,1000.73
2022-10-13T11:16:18.946Z,1000.70
2022-10-13T11:17:18.936Z,1000.60
2022-10-13T11:18:21.942Z,1000.65
2022-10-13T11:19:19.920Z,1000.56
2022-10-13T11:20:18.905Z,1000.58
2022-10-13T11:21:18.899Z,1000.51
2022-10-13T11:22:19.245Z,1000.48
2022-10-13T11:23:18.930Z,1000.48
2022-10-13T11:24:18.889Z,1000.49
2022-10-13T11:25:18.868Z,1000.52
2022-10-13T11:26:18.857Z,1000.48
2022-10-13T11:27:19.854Z,1000.49
2022-10-13T11:28:18.925Z,1000.40
2022-10-13T11:29:18.832Z,1000.38
2022-10-13T11:30:18.884Z,1000.42
2022-10-13T11:31:18.826Z,1000.37
2022-10-13T11:32:19.185Z,1000.35
2022-10-13T11:33:18.834Z,1000.26
2022-10-13T11:34:18.799Z,1000.27
2022-10-13T11:35:18.783Z,1000.23
2022-10-13T11:36:18.779Z,1000.17
2022-10-13T11:37:18.770Z,1000.18
2022-10-13T11:38:18.979Z,1000.15
2022-10-13T11:39:18.805Z,1000.19
2022-10-13T11:40:18.744Z,1000.23
2022-10-13T11:41:18.746Z,1000.17
2022-10-13T11:42:19.105Z,1000.16
2022-10-13T11:43:18.768Z,1000.14
2022-10-13T11:44:18.750Z,1000.16
2022-10-13T11:45:18.702Z,1000.23
2022-10-13T11:46:18.700Z,1000.22
2022-10-13T11:47:18.890Z,1000.18
2022-10-13T11:48:18.707Z,1000.13
2022-10-13T11:49:18.673Z,1000.16
2022-10-13T11:50:18.663Z,1000.15
2022-10-13T11:51:18.647Z,1000.22
2022-10-13T11:52:19.112Z,1000.13
2022-10-13T11:53:18.639Z,1000.03
2022-10-13T11:54:18.656Z,1000.07
2022-10-13T11:55:18.621Z,1000.10
2022-10-13T11:56:18.606Z,1000.15
2022-10-13T11:57:18.602Z,1000.10
2022-10-13T11:58:18.598Z,1000.03
2022-10-13T11:59:18.611Z,1000.07
2022-10-13T12:00:18.583Z,999.97
2022-10-13T12:01:18.566Z,999.89
2022-10-13T12:02:19.418Z,999.87
2022-10-13T12:03:19.588Z,999.79
2022-10-13T12:04:18.569Z,999.70
2022-10-13T12:05:18.532Z,999.73
2022-10-13T12:06:18.525Z,999.73
2022-10-13T12:07:18.518Z,999.69
2022-10-13T12:08:18.508Z,999.79
2022-10-13T12:09:18.534Z,999.84
2022-10-13T12:10:18.490Z,999.80
2022-10-13T12:11:18.485Z,999.81